Palau, Palau
Current Conditions -  °F | °C
As of 10:52 AM on Sunday 21 Dec 2014 (Local Time) from PTKR Reporting Station
Broken Clouds Broken Clouds  
Wind Chill: 31°   Ceiling: 32000
Heat Index: 36°   Visibility: 15mi
Dew Point: 24°   Wind: 7mph
Humidity: 69%   Direction: 70°ENE
Pressure: 29.81"   Gusts: NA
Location:  7.33°N, 134.48°E
Report Text: PTKR 210152Z 07006KT 15SM SCT020 BKN320 31/24 A2981 RMK SLP094 T03060244
Loading
Personal Weather Stations






























Interactive Weather Map New forecast layout! Learn more

10-Day Weather Forecast

Advertisements
Track Severe Weather on mobile